< < Back
Terminal Aerodrome Forecast


Current Version              Previous Versions:   1  2  3  4  5  6  7  8  9  

Terminal Aerodrome Forecast

409
FTUS42 KGSP 301100
TAFHKY
TAF
KHKY 301120Z 3012/0112 31005KT 6SM BR OVC003
      TEMPO 3012/3014 1SM BR OVC002
     FM301400 VRB03KT P6SM FEW050
     FM010500 00000KT 4SM BR FEW250
     FM010800 33003KT 3SM BR FEW250=

Latest METAR

359
SAUS70 KWBC 302000 RRO
MTRHKY
METAR KHKY 301953Z 00000KT 10SM FEW060 27/14 A2989 RMK AO2 SLP100
T02670144


USA.gov is the U.S. government's official web portal to all federal, state and local government web resources and services.